createdAt,value
2019-03-01T00:01:41.962Z,2.00
2019-03-01T00:04:23.444Z,2.00
2019-03-01T00:07:38.518Z,2.30
2019-03-01T00:10:24.546Z,2.50
2019-03-01T00:13:46.659Z,2.50
2019-03-01T00:16:40.996Z,2.30
2019-03-01T00:19:58.727Z,2.30
2019-03-01T00:23:01.530Z,2.20
2019-03-01T00:25:56.667Z,2.10
2019-03-01T00:28:58.255Z,2.20
2019-03-01T00:32:02.603Z,2.20
2019-03-01T00:35:07.807Z,2.10
2019-03-01T00:38:23.300Z,2.00
2019-03-01T00:41:20.111Z,1.90
2019-03-01T00:44:17.083Z,1.90
2019-03-01T00:46:49.700Z,1.80
2019-03-01T00:49:21.408Z,1.80
2019-03-01T00:51:52.963Z,1.80
2019-03-01T00:54:24.647Z,1.80
2019-03-01T00:57:07.031Z,1.90
2019-03-01T00:59:39.823Z,1.90
2019-03-01T01:02:11.432Z,1.90
2019-03-01T01:04:43.138Z,2.10
2019-03-01T01:07:15.843Z,2.20
2019-03-01T01:09:48.103Z,2.20
2019-03-01T01:12:19.551Z,2.20
2019-03-01T01:14:51.284Z,2.60
2019-03-01T01:17:22.851Z,2.70
2019-03-01T01:19:54.415Z,2.70
2019-03-01T01:22:25.867Z,2.60
2019-03-01T01:24:57.706Z,2.30
2019-03-01T01:27:29.251Z,2.20
2019-03-01T01:30:00.954Z,2.20
2019-03-01T01:32:32.643Z,2.20
2019-03-01T01:35:04.860Z,2.10
2019-03-01T01:37:36.476Z,2.00
2019-03-01T01:40:10.219Z,1.90
2019-03-01T01:42:41.894Z,1.80
2019-03-01T01:45:14.846Z,1.80
2019-03-01T01:47:46.494Z,1.70
2019-03-01T01:50:18.255Z,1.70
2019-03-01T01:52:49.691Z,1.70
2019-03-01T01:55:22.456Z,1.70
2019-03-01T01:57:54.094Z,1.70
2019-03-01T02:00:25.963Z,1.80
2019-03-01T02:02:57.583Z,1.70
2019-03-01T02:05:29.828Z,1.80
2019-03-01T02:08:01.487Z,1.70
2019-03-01T02:10:34.257Z,1.70
2019-03-01T02:13:05.849Z,1.60
2019-03-01T02:15:37.478Z,1.60
2019-03-01T02:18:09.033Z,1.60
2019-03-01T02:20:42.432Z,1.50
2019-03-01T02:23:14.178Z,1.50
2019-03-01T02:25:46.175Z,1.50
2019-03-01T02:28:17.803Z,1.60
2019-03-01T02:30:50.058Z,1.60
2019-03-01T02:33:21.695Z,1.50
2019-03-01T02:36:04.131Z,1.50
2019-03-01T02:38:35.670Z,1.60
2019-03-01T02:41:07.328Z,1.50
2019-03-01T02:43:39.018Z,1.50
2019-03-01T02:46:10.576Z,1.50
2019-03-01T02:48:42.201Z,1.40
2019-03-01T02:51:13.875Z,1.30
2019-03-01T02:53:45.506Z,1.30
2019-03-01T02:56:18.357Z,1.30
2019-03-01T02:58:49.898Z,1.10
2019-03-01T03:01:21.502Z,1.00
2019-03-01T03:03:53.040Z,0.90
2019-03-01T03:06:42.520Z,0.80
2019-03-01T03:09:14.890Z,0.80
2019-03-01T03:11:46.556Z,0.80
2019-03-01T03:14:18.151Z,0.80
2019-03-01T03:16:49.878Z,0.80
2019-03-01T03:19:21.438Z,0.80
2019-03-01T03:21:53.068Z,0.80
2019-03-01T03:24:24.472Z,0.80
2019-03-01T03:26:56.046Z,0.80
2019-03-01T03:29:28.780Z,0.80
2019-03-01T03:32:00.457Z,0.80
2019-03-01T03:34:32.029Z,0.70
2019-03-01T03:37:03.519Z,0.80
2019-03-01T03:39:34.926Z,1.00
2019-03-01T03:42:06.644Z,1.10
2019-03-01T03:44:39.018Z,1.10
2019-03-01T03:47:10.790Z,1.10
2019-03-01T03:49:42.588Z,1.00
2019-03-01T03:52:14.183Z,1.00
2019-03-01T03:54:45.882Z,1.00
2019-03-01T03:57:17.698Z,0.90
2019-03-01T03:59:50.578Z,1.00
2019-03-01T04:02:23.421Z,1.00
2019-03-01T04:04:55.078Z,0.90
2019-03-01T04:07:28.238Z,0.90
2019-03-01T04:10:00.866Z,0.90
2019-03-01T04:12:32.719Z,0.80
2019-03-01T04:15:05.357Z,0.80
2019-03-01T04:17:37.151Z,0.80
2019-03-01T04:20:10.665Z,0.80
2019-03-01T04:22:42.190Z,0.90
2019-03-01T04:25:13.834Z,1.00
2019-03-01T04:27:45.462Z,0.90
2019-03-01T04:30:17.723Z,1.00
2019-03-01T04:32:49.400Z,1.10
2019-03-01T04:35:21.134Z,1.10
2019-03-01T04:37:53.064Z,1.10
2019-03-01T04:40:25.103Z,1.20
2019-03-01T04:43:15.459Z,1.30
2019-03-01T04:45:47.109Z,1.30
2019-03-01T04:48:19.972Z,1.20
2019-03-01T04:50:51.737Z,1.10
2019-03-01T04:53:24.698Z,1.00
2019-03-01T04:55:56.294Z,1.00
2019-03-01T04:58:27.833Z,0.90
2019-03-01T05:00:59.487Z,1.00
2019-03-01T05:03:31.997Z,0.90
2019-03-01T05:06:03.667Z,1.20
2019-03-01T05:08:36.128Z,1.20
2019-03-01T05:11:07.759Z,1.20
2019-03-01T05:13:39.872Z,1.30
2019-03-01T05:16:11.673Z,1.30
2019-03-01T05:18:43.921Z,1.70
2019-03-01T05:21:16.649Z,1.90
2019-03-01T05:23:48.244Z,2.10
2019-03-01T05:26:19.907Z,2.30
2019-03-01T05:28:51.539Z,2.30
2019-03-01T05:31:23.243Z,2.50
2019-03-01T05:33:55.439Z,3.10
2019-03-01T05:36:28.044Z,3.10
2019-03-01T05:38:59.748Z,3.70
2019-03-01T05:41:33.021Z,3.90
2019-03-01T05:44:15.333Z,4.10
2019-03-01T05:46:47.109Z,4.70
2019-03-01T05:49:18.806Z,4.90
2019-03-01T05:51:50.656Z,5.20
2019-03-01T05:54:22.344Z,5.30
2019-03-01T05:56:54.027Z,5.50
2019-03-01T05:59:27.459Z,5.60
2019-03-01T06:02:31.048Z,5.30
2019-03-01T06:05:06.751Z,4.90
2019-03-01T06:08:20.618Z,5.20
2019-03-01T06:11:09.931Z,5.10
2019-03-01T06:14:24.993Z,6.00
2019-03-01T06:18:01.455Z,6.20
2019-03-01T06:20:56.878Z,5.80
2019-03-01T06:23:57.841Z,6.30
2019-03-01T06:26:48.501Z,6.50
2019-03-01T06:29:54.585Z,6.50
2019-03-01T06:32:59.488Z,7.10
2019-03-01T06:36:06.050Z,7.50
2019-03-01T06:39:45.575Z,7.60
2019-03-01T06:43:00.345Z,7.40
2019-03-01T06:46:24.799Z,8.00
2019-03-01T06:49:00.320Z,8.20
2019-03-01T06:51:34.639Z,8.50
2019-03-01T06:54:06.374Z,8.00
2019-03-01T06:56:37.968Z,7.80
2019-03-01T06:59:09.775Z,7.70
2019-03-01T07:01:48.197Z,8.70
2019-03-01T07:04:20.239Z,8.20
2019-03-01T07:06:53.202Z,8.00
2019-03-01T07:09:24.726Z,8.00
2019-03-01T07:11:57.091Z,8.50
2019-03-01T07:14:28.831Z,8.70
2019-03-01T07:17:00.395Z,8.60
2019-03-01T07:19:50.804Z,8.60
2019-03-01T07:22:22.843Z,9.50
2019-03-01T07:24:54.733Z,9.50
2019-03-01T07:27:26.427Z,9.30
2019-03-01T07:29:58.853Z,9.70
2019-03-01T07:32:31.938Z,9.60
2019-03-01T07:35:03.872Z,9.50
2019-03-01T07:37:36.920Z,10.20
2019-03-01T07:40:08.900Z,10.50
2019-03-01T07:42:40.592Z,10.30
2019-03-01T07:45:12.368Z,11.00
2019-03-01T07:47:44.097Z,11.60
2019-03-01T07:50:15.872Z,11.70
2019-03-01T07:52:47.470Z,12.10
2019-03-01T07:55:19.260Z,12.70
2019-03-01T07:57:50.990Z,12.50
2019-03-01T08:00:22.574Z,12.40
2019-03-01T08:02:54.883Z,13.50
2019-03-01T08:05:26.578Z,13.50
2019-03-01T08:08:02.584Z,13.80
2019-03-01T08:10:31.480Z,13.40
2019-03-01T08:13:03.165Z,13.40
2019-03-01T08:15:34.815Z,14.00
2019-03-01T08:18:08.174Z,14.60
2019-03-01T08:20:40.135Z,15.00
2019-03-01T08:23:11.751Z,15.70
2019-03-01T08:25:43.426Z,14.20
2019-03-01T08:28:18.372Z,14.70
2019-03-01T08:30:49.568Z,15.00
2019-03-01T08:33:31.953Z,15.10
2019-03-01T08:36:05.820Z,15.20
2019-03-01T08:38:37.760Z,15.50
2019-03-01T08:41:10.440Z,15.70
2019-03-01T08:43:44.740Z,16.20
2019-03-01T08:46:15.504Z,16.20
2019-03-01T08:48:47.126Z,16.20
2019-03-01T08:51:18.761Z,16.10
2019-03-01T08:53:51.055Z,16.30
2019-03-01T08:56:26.046Z,16.60
2019-03-01T08:58:57.246Z,16.70
2019-03-01T09:01:28.974Z,16.70
2019-03-01T09:04:03.345Z,16.80
2019-03-01T09:06:34.995Z,16.50
2019-03-01T09:09:08.787Z,16.30
2019-03-01T09:11:44.711Z,16.50
2019-03-01T09:14:15.374Z,16.70
2019-03-01T09:16:47.154Z,17.40
2019-03-01T09:19:22.296Z,17.30
2019-03-01T09:21:53.318Z,16.70
2019-03-01T09:24:25.755Z,16.50
2019-03-01T09:26:58.547Z,16.70
2019-03-01T09:29:30.809Z,16.90
2019-03-01T09:32:02.421Z,16.50
2019-03-01T09:34:34.327Z,17.00
2019-03-01T09:37:05.972Z,17.20
2019-03-01T09:39:37.580Z,17.30
2019-03-01T09:42:12.348Z,17.60
2019-03-01T09:44:42.963Z,17.80
2019-03-01T09:47:14.618Z,17.20
2019-03-01T09:49:46.143Z,17.30
2019-03-01T09:52:20.369Z,17.80
2019-03-01T09:54:51.050Z,17.60
2019-03-01T09:57:33.622Z,17.40
2019-03-01T10:00:05.454Z,17.60
2019-03-01T10:02:37.492Z,17.10
2019-03-01T10:05:12.015Z,18.00
2019-03-01T10:07:43.567Z,18.40
2019-03-01T10:10:19.801Z,18.30
2019-03-01T10:12:51.362Z,18.50
2019-03-01T10:15:24.066Z,18.70
2019-03-01T10:17:55.697Z,19.10
2019-03-01T10:20:27.519Z,19.50
2019-03-01T10:22:59.095Z,19.30
2019-03-01T10:25:31.024Z,19.40
2019-03-01T10:28:21.289Z,19.40
2019-03-01T10:30:53.052Z,19.50
2019-03-01T10:33:24.725Z,19.00
2019-03-01T10:35:58.564Z,19.10
2019-03-01T10:38:31.687Z,18.60
2019-03-01T10:41:03.491Z,18.70
2019-03-01T10:43:35.142Z,18.90
2019-03-01T10:46:06.820Z,19.00
2019-03-01T10:48:41.082Z,18.80
2019-03-01T10:51:13.736Z,18.40
2019-03-01T10:53:45.500Z,18.90
2019-03-01T10:56:18.148Z,19.60
2019-03-01T10:58:49.699Z,19.10
2019-03-01T11:01:21.419Z,19.40
2019-03-01T11:03:53.145Z,19.20
2019-03-01T11:06:24.907Z,19.20
2019-03-01T11:08:56.696Z,19.10
2019-03-01T11:11:28.399Z,19.10
2019-03-01T11:13:59.963Z,19.20
2019-03-01T11:16:31.615Z,19.40
2019-03-01T11:19:04.113Z,19.00
2019-03-01T11:21:35.746Z,19.40
2019-03-01T11:24:07.189Z,19.60
2019-03-01T11:26:40.079Z,19.50
2019-03-01T11:29:11.692Z,19.70
2019-03-01T11:31:44.397Z,19.30
2019-03-01T11:34:16.977Z,18.90
2019-03-01T11:36:48.682Z,19.50
2019-03-01T11:39:20.761Z,19.30
2019-03-01T11:41:52.602Z,19.10
2019-03-01T11:44:23.984Z,18.90
2019-03-01T11:46:56.255Z,19.00
2019-03-01T11:49:28.899Z,18.90
2019-03-01T11:52:00.399Z,18.80
2019-03-01T11:54:32.162Z,18.90
2019-03-01T11:57:03.906Z,18.50
2019-03-01T11:59:35.777Z,19.00
2019-03-01T12:02:08.130Z,19.10
2019-03-01T12:04:39.936Z,19.00
2019-03-01T12:07:11.649Z,18.80
2019-03-01T12:09:43.320Z,18.90
2019-03-01T12:12:15.958Z,18.90
2019-03-01T12:14:47.609Z,18.80
2019-03-01T12:17:19.845Z,18.90
2019-03-01T12:19:51.627Z,18.90
2019-03-01T12:22:23.464Z,19.00
2019-03-01T12:24:55.160Z,19.10
2019-03-01T12:27:27.942Z,18.90
2019-03-01T12:29:59.711Z,18.90
2019-03-01T12:32:32.658Z,18.90
2019-03-01T12:35:04.400Z,18.60
2019-03-01T12:37:36.026Z,18.60
2019-03-01T12:40:08.921Z,18.50
2019-03-01T12:42:40.612Z,18.40
2019-03-01T12:45:13.560Z,18.50
2019-03-01T12:47:45.257Z,18.60
2019-03-01T12:50:17.181Z,18.70
2019-03-01T12:52:49.787Z,18.60
2019-03-01T12:55:23.289Z,18.60
2019-03-01T12:57:55.063Z,18.30
2019-03-01T13:00:30.769Z,18.40
2019-03-01T13:03:05.332Z,18.40
2019-03-01T13:05:36.804Z,18.30
2019-03-01T13:08:08.790Z,18.30
2019-03-01T13:10:41.450Z,18.20
2019-03-01T13:13:13.374Z,18.10
2019-03-01T13:15:48.377Z,18.20
2019-03-01T13:18:18.531Z,18.10
2019-03-01T13:21:01.607Z,18.20
2019-03-01T13:23:37.546Z,18.10
2019-03-01T13:26:07.970Z,18.00
2019-03-01T13:28:39.750Z,18.10
2019-03-01T13:31:12.332Z,18.30
2019-03-01T13:33:44.210Z,18.10
2019-03-01T13:36:15.925Z,17.90
2019-03-01T13:38:48.176Z,18.10
2019-03-01T13:41:20.538Z,18.00
2019-03-01T13:43:52.291Z,18.00
2019-03-01T13:46:26.399Z,18.00
2019-03-01T13:48:57.371Z,18.00
2019-03-01T13:51:29.150Z,18.00
2019-03-01T13:54:00.969Z,18.00
2019-03-01T13:56:32.824Z,18.00
2019-03-01T13:59:06.183Z,17.90
2019-03-01T14:01:37.954Z,17.90
2019-03-01T14:04:09.887Z,17.90
2019-03-01T14:06:41.661Z,17.80
2019-03-01T14:09:15.475Z,17.70
2019-03-01T14:11:48.096Z,17.70
2019-03-01T14:14:19.864Z,17.60
2019-03-01T14:16:52.232Z,17.50
2019-03-01T14:19:23.961Z,17.40
2019-03-01T14:21:57.133Z,17.40
2019-03-01T14:24:29.530Z,17.60
2019-03-01T14:27:03.303Z,17.50
2019-03-01T14:29:36.825Z,17.70
2019-03-01T14:32:08.497Z,17.60
2019-03-01T14:34:40.255Z,17.70
2019-03-01T14:37:11.813Z,17.70
2019-03-01T14:39:45.378Z,17.50
2019-03-01T14:42:16.908Z,17.50
2019-03-01T14:44:51.209Z,17.40
2019-03-01T14:47:22.877Z,17.40
2019-03-01T14:50:01.668Z,17.20
2019-03-01T14:52:34.357Z,16.90
2019-03-01T14:55:08.313Z,16.70
2019-03-01T14:57:47.053Z,16.60
2019-03-01T15:00:25.625Z,16.40
2019-03-01T15:03:27.871Z,16.30
2019-03-01T15:06:00.802Z,16.20
2019-03-01T15:08:32.729Z,16.10
2019-03-01T15:11:10.767Z,16.00
2019-03-01T15:13:42.979Z,15.90
2019-03-01T15:16:14.792Z,15.80
2019-03-01T15:18:46.489Z,15.60
2019-03-01T15:21:19.620Z,15.50
2019-03-01T15:23:52.349Z,15.30
2019-03-01T15:26:26.677Z,15.20
2019-03-01T15:28:58.891Z,15.10
2019-03-01T15:31:31.159Z,15.10
2019-03-01T15:34:03.035Z,15.00
2019-03-01T15:36:35.826Z,14.90
2019-03-01T15:39:08.534Z,14.80
2019-03-01T15:41:42.129Z,14.60
2019-03-01T15:44:13.985Z,14.50
2019-03-01T15:46:46.355Z,14.40
2019-03-01T15:49:23.510Z,14.20
2019-03-01T15:51:53.102Z,14.10
2019-03-01T15:54:24.810Z,13.90
2019-03-01T15:56:56.662Z,13.80
2019-03-01T15:59:28.407Z,13.60
2019-03-01T16:02:00.219Z,13.50
2019-03-01T16:04:33.708Z,13.40
2019-03-01T16:07:05.251Z,13.30
2019-03-01T16:09:37.550Z,13.10
2019-03-01T16:12:09.934Z,13.00
2019-03-01T16:14:41.602Z,13.00
2019-03-01T16:17:14.348Z,12.80
2019-03-01T16:19:46.952Z,12.80
2019-03-01T16:22:19.684Z,12.70
2019-03-01T16:24:51.979Z,12.70
2019-03-01T16:27:23.846Z,12.70
2019-03-01T16:29:56.270Z,12.90
2019-03-01T16:32:28.064Z,12.80
2019-03-01T16:34:59.896Z,12.70
2019-03-01T16:37:31.760Z,12.60
2019-03-01T16:40:05.435Z,12.40
2019-03-01T16:42:41.081Z,12.30
2019-03-01T16:45:12.795Z,12.20
2019-03-01T16:47:44.682Z,12.20
2019-03-01T16:50:22.601Z,12.10
2019-03-01T16:52:54.556Z,12.10
2019-03-01T16:55:27.804Z,12.10
2019-03-01T16:58:06.727Z,12.00
2019-03-01T17:00:33.407Z,12.10
2019-03-01T17:03:06.847Z,12.10
2019-03-01T17:05:39.737Z,12.10
2019-03-01T17:08:11.883Z,12.10
2019-03-01T17:10:45.604Z,12.10
2019-03-01T17:13:17.903Z,12.20
2019-03-01T17:15:57.930Z,12.10
2019-03-01T17:18:30.659Z,12.30
2019-03-01T17:21:16.589Z,12.30
2019-03-01T17:23:48.335Z,12.30
2019-03-01T17:26:21.237Z,12.40
2019-03-01T17:28:53.989Z,12.30
2019-03-01T17:31:26.860Z,12.10
2019-03-01T17:33:59.214Z,12.10
2019-03-01T17:36:31.269Z,12.10
2019-03-01T17:39:03.084Z,12.10
2019-03-01T17:41:37.471Z,12.10
2019-03-01T17:44:09.611Z,12.10
2019-03-01T17:46:42.381Z,12.10
2019-03-01T17:49:14.189Z,12.00
2019-03-01T17:51:45.977Z,11.80
2019-03-01T17:54:18.995Z,11.70
2019-03-01T17:56:54.053Z,11.80
2019-03-01T17:59:25.920Z,11.80
2019-03-01T18:01:57.553Z,11.60
2019-03-01T18:04:29.197Z,11.50
2019-03-01T18:07:00.865Z,11.30
2019-03-01T18:09:32.738Z,11.10
2019-03-01T18:12:05.464Z,11.00
2019-03-01T18:14:37.603Z,10.80
2019-03-01T18:17:09.510Z,10.80
2019-03-01T18:19:41.363Z,10.90
2019-03-01T18:22:13.334Z,10.70
2019-03-01T18:24:46.748Z,10.60
2019-03-01T18:27:18.825Z,10.50
2019-03-01T18:29:50.663Z,10.60
2019-03-01T18:32:23.698Z,10.40
2019-03-01T18:34:58.449Z,10.30
2019-03-01T18:37:32.433Z,10.10
2019-03-01T18:40:04.813Z,10.30
2019-03-01T18:42:38.059Z,10.10
2019-03-01T18:45:13.740Z,9.90
2019-03-01T18:47:45.849Z,9.80
2019-03-01T18:50:23.908Z,9.90
2019-03-01T18:52:56.130Z,9.70
2019-03-01T18:55:28.236Z,9.50
2019-03-01T18:58:00.107Z,9.50
2019-03-01T19:00:35.844Z,9.40
2019-03-01T19:03:07.805Z,9.20
2019-03-01T19:05:41.179Z,9.10
2019-03-01T19:08:13.027Z,9.10
2019-03-01T19:10:53.742Z,9.10
2019-03-01T19:13:20.852Z,9.20
2019-03-01T19:15:54.517Z,9.00
2019-03-01T19:18:26.482Z,8.90
2019-03-01T19:20:58.146Z,8.80
2019-03-01T19:23:32.407Z,8.80
2019-03-01T19:26:03.264Z,8.70
2019-03-01T19:28:34.945Z,8.60
2019-03-01T19:31:07.238Z,8.60
2019-03-01T19:33:41.470Z,8.50
2019-03-01T19:36:13.264Z,8.40
2019-03-01T19:38:46.393Z,8.40
2019-03-01T19:41:20.102Z,8.40
2019-03-01T19:43:57.438Z,8.40
2019-03-01T19:46:26.591Z,8.30
2019-03-01T19:48:58.535Z,8.20
2019-03-01T19:51:30.409Z,8.10
2019-03-01T19:54:02.132Z,8.10
2019-03-01T19:56:35.110Z,8.20
2019-03-01T19:59:07.021Z,8.20
2019-03-01T20:01:39.168Z,8.10
2019-03-01T20:04:11.152Z,8.00
2019-03-01T20:06:43.472Z,7.90
2019-03-01T20:09:16.317Z,8.20
2019-03-01T20:11:48.326Z,8.10
2019-03-01T20:14:20.179Z,8.00
2019-03-01T20:16:54.856Z,7.90
2019-03-01T20:19:24.967Z,7.80
2019-03-01T20:21:56.709Z,7.80
2019-03-01T20:24:28.314Z,7.90
2019-03-01T20:27:03.024Z,7.70
2019-03-01T20:29:33.333Z,7.70
2019-03-01T20:32:06.032Z,7.70
2019-03-01T20:34:37.980Z,7.90
2019-03-01T20:37:10.305Z,8.00
2019-03-01T20:39:41.863Z,7.90
2019-03-01T20:42:13.819Z,7.70
2019-03-01T20:44:45.396Z,7.80
2019-03-01T20:47:18.385Z,7.70
2019-03-01T20:49:50.758Z,7.70
2019-03-01T20:52:22.633Z,7.70
2019-03-01T20:54:54.237Z,7.60
2019-03-01T20:57:27.026Z,7.60
2019-03-01T20:59:58.769Z,7.60
2019-03-01T21:02:31.630Z,7.60
2019-03-01T21:05:04.290Z,7.50
2019-03-01T21:07:36.375Z,7.50
2019-03-01T21:10:12.577Z,7.40
2019-03-01T21:12:45.590Z,7.30
2019-03-01T21:15:18.480Z,7.30
2019-03-01T21:17:52.933Z,7.10
2019-03-01T21:20:23.580Z,6.90
2019-03-01T21:22:55.367Z,6.80
2019-03-01T21:25:26.828Z,6.60
2019-03-01T21:28:00.903Z,6.70
2019-03-01T21:30:31.659Z,6.60
2019-03-01T21:33:03.382Z,6.60
2019-03-01T21:35:34.939Z,6.70
2019-03-01T21:38:06.465Z,6.60
2019-03-01T21:40:38.039Z,6.50
2019-03-01T21:43:09.785Z,6.50
2019-03-01T21:45:41.470Z,6.40
2019-03-01T21:48:13.109Z,6.30
2019-03-01T21:50:44.665Z,6.50
2019-03-01T21:53:16.355Z,6.70
2019-03-01T21:55:47.891Z,6.70
2019-03-01T21:58:19.365Z,6.70
2019-03-01T22:00:53.274Z,6.50
2019-03-01T22:03:28.017Z,6.40
2019-03-01T22:05:58.850Z,6.40
2019-03-01T22:08:31.318Z,6.30
2019-03-01T22:11:02.761Z,6.30
2019-03-01T22:13:35.749Z,6.30
2019-03-01T22:16:08.261Z,6.20
2019-03-01T22:18:40.071Z,6.10
2019-03-01T22:21:11.546Z,6.10
2019-03-01T22:23:43.185Z,5.90
2019-03-01T22:26:15.986Z,5.80
2019-03-01T22:28:47.718Z,5.70
2019-03-01T22:31:19.400Z,5.70
2019-03-01T22:33:52.647Z,5.60
2019-03-01T22:36:24.689Z,5.60
2019-03-01T22:38:56.521Z,5.60
2019-03-01T22:41:28.096Z,5.70
2019-03-01T22:44:01.687Z,5.70
2019-03-01T22:46:33.129Z,5.70
2019-03-01T22:49:04.757Z,5.70
2019-03-01T22:51:36.516Z,5.80
2019-03-01T22:54:08.322Z,5.80
2019-03-01T22:56:39.984Z,5.90
2019-03-01T22:59:11.995Z,5.90
2019-03-01T23:01:46.247Z,5.90
2019-03-01T23:04:18.260Z,5.70
2019-03-01T23:06:51.472Z,5.60
2019-03-01T23:09:24.235Z,5.50
2019-03-01T23:11:57.492Z,5.50
2019-03-01T23:14:30.831Z,5.50
2019-03-01T23:17:02.335Z,5.40
2019-03-01T23:19:35.145Z,5.40
2019-03-01T23:22:07.633Z,5.40
2019-03-01T23:24:41.318Z,5.30
2019-03-01T23:27:13.069Z,5.40
2019-03-01T23:29:44.819Z,5.40
2019-03-01T23:32:16.781Z,5.30
2019-03-01T23:34:49.709Z,5.20
2019-03-01T23:37:21.238Z,5.20
2019-03-01T23:39:53.273Z,5.10
2019-03-01T23:42:24.830Z,5.20
2019-03-01T23:44:56.483Z,5.10
2019-03-01T23:47:28.100Z,5.10
2019-03-01T23:50:00.526Z,5.20
2019-03-01T23:52:33.494Z,5.20
2019-03-01T23:55:05.421Z,5.20
2019-03-01T23:57:38.009Z,5.20
